Terminal Aerodrome Forecast
Issued by NWS

Home | Current Version | Previous Version | Text Only | Print | Product List | Glossary Off
Versions: 1 2 3 4 5 6 7 8 9 10 11 12 13 14 15 16 17 18 19 20 21

971
FTUS43 KOAX 201624 AAB
TAFCDR
TAF AMD
KCDR 201624Z 2016/2112 29010KT P6SM FEW100
     FM210000 23005KT P6SM SKC=

USA.gov is the U.S. government's official web portal to all federal, state and local government web resources and services.